createdAt,value
2019-03-24T00:00:42.390Z,999.94
2019-03-24T00:01:42.334Z,999.99
2019-03-24T00:02:42.227Z,999.98
2019-03-24T00:03:42.146Z,999.98
2019-03-24T00:04:42.066Z,999.98
2019-03-24T00:05:41.991Z,1000.00
2019-03-24T00:06:42.238Z,1000.01
2019-03-24T00:07:41.823Z,999.97
2019-03-24T00:08:41.744Z,999.95
2019-03-24T00:09:41.688Z,999.97
2019-03-24T00:10:41.580Z,999.94
2019-03-24T00:11:41.499Z,999.93
2019-03-24T00:13:41.337Z,999.92
2019-03-24T00:14:41.280Z,999.89
2019-03-24T00:15:41.173Z,999.89
2019-03-24T00:16:41.091Z,999.92
2019-03-24T00:17:41.040Z,999.90
2019-03-24T00:18:40.931Z,999.91
2019-03-24T00:19:40.878Z,999.93
2019-03-24T00:20:40.798Z,999.96
2019-03-24T00:21:41.118Z,999.93
2019-03-24T00:22:40.606Z,999.92
2019-03-24T00:23:40.550Z,999.97
2019-03-24T00:24:40.775Z,999.95
2019-03-24T00:25:40.364Z,999.89
2019-03-24T00:26:40.309Z,999.89
2019-03-24T00:28:40.118Z,999.86
2019-03-24T00:29:40.039Z,999.85
2019-03-24T00:30:40.190Z,999.86
2019-03-24T00:31:39.902Z,999.83
2019-03-24T00:32:39.823Z,999.86
2019-03-24T00:33:39.916Z,999.80
2019-03-24T00:35:39.579Z,999.76
2019-03-24T00:36:39.471Z,999.81
2019-03-24T00:38:39.659Z,999.73
2019-03-24T00:39:39.532Z,999.78
2019-03-24T00:40:39.147Z,999.74
2019-03-24T00:41:39.065Z,999.75
2019-03-24T00:42:39.390Z,999.76
2019-03-24T00:44:38.823Z,999.73
2019-03-24T00:45:38.769Z,999.74
2019-03-24T00:46:38.665Z,999.73
2019-03-24T00:47:38.911Z,999.71
2019-03-24T00:48:38.496Z,999.66
2019-03-24T00:49:38.626Z,999.63
2019-03-24T00:50:38.335Z,999.61
2019-03-24T00:51:38.252Z,999.61
2019-03-24T00:52:38.171Z,999.64
2019-03-24T00:53:38.115Z,999.60
2019-03-24T00:54:38.010Z,999.55
2019-03-24T00:55:38.053Z,999.56
2019-03-24T00:56:37.876Z,999.59
2019-03-24T00:57:37.942Z,999.56
2019-03-24T00:58:37.709Z,999.51
2019-03-24T00:59:37.605Z,999.53
2019-03-24T01:00:37.522Z,999.56
2019-03-24T01:01:37.447Z,999.51
2019-03-24T01:02:37.361Z,999.52
2019-03-24T01:03:37.279Z,999.49
2019-03-24T01:04:37.201Z,999.47
2019-03-24T01:05:37.117Z,999.52
2019-03-24T01:06:37.041Z,999.50
2019-03-24T01:07:36.988Z,999.48
2019-03-24T01:08:37.077Z,999.49
2019-03-24T01:09:36.823Z,999.48
2019-03-24T01:10:36.739Z,999.48
2019-03-24T01:11:36.656Z,999.51
2019-03-24T01:13:36.468Z,999.52
2019-03-24T01:14:36.388Z,999.49
2019-03-24T01:15:47.155Z,999.47
2019-03-24T01:16:36.224Z,999.48
2019-03-24T01:17:36.143Z,999.47
2019-03-24T01:18:36.062Z,999.43
2019-03-24T01:19:35.979Z,999.44
2019-03-24T01:20:35.898Z,999.42
2019-03-24T01:21:35.828Z,999.43
2019-03-24T01:22:35.736Z,999.40
2019-03-24T01:23:35.653Z,999.39
2019-03-24T01:24:35.574Z,999.38
2019-03-24T01:25:35.492Z,999.37
2019-03-24T01:26:35.411Z,999.36
2019-03-24T01:27:35.329Z,999.40
2019-03-24T01:28:35.246Z,999.39
2019-03-24T01:29:35.169Z,999.41
2019-03-24T01:30:35.083Z,999.38
2019-03-24T01:31:35.101Z,999.40
2019-03-24T01:32:34.921Z,999.40
2019-03-24T01:33:34.842Z,999.39
2019-03-24T01:34:34.758Z,999.41
2019-03-24T01:35:34.675Z,999.39
2019-03-24T01:36:34.593Z,999.38
2019-03-24T01:37:34.512Z,999.37
2019-03-24T01:38:34.431Z,999.35
2019-03-24T01:39:34.349Z,999.33
2019-03-24T01:40:34.271Z,999.31
2019-03-24T01:41:34.188Z,999.35
2019-03-24T01:42:34.110Z,999.36
2019-03-24T01:43:34.022Z,999.32
2019-03-24T01:44:33.942Z,999.32
2019-03-24T01:45:33.859Z,999.29
2019-03-24T01:46:33.778Z,999.30
2019-03-24T01:47:33.695Z,999.31
2019-03-24T01:48:33.614Z,999.27
2019-03-24T01:49:33.533Z,999.28
2019-03-24T01:50:33.452Z,999.20
2019-03-24T01:51:33.368Z,999.26
2019-03-24T01:52:33.289Z,999.21
2019-03-24T01:53:33.207Z,999.23
2019-03-24T01:54:33.126Z,999.21
2019-03-24T01:55:33.044Z,999.19
2019-03-24T01:56:32.965Z,999.17
2019-03-24T01:57:32.881Z,999.15
2019-03-24T01:58:32.800Z,999.14
2019-03-24T01:59:32.716Z,999.11
2019-03-24T02:00:32.635Z,999.10
2019-03-24T02:01:32.554Z,999.07
2019-03-24T02:02:32.472Z,999.07
2019-03-24T02:03:32.393Z,999.02
2019-03-24T02:04:32.308Z,999.03
2019-03-24T02:05:32.233Z,999.05
2019-03-24T02:06:32.145Z,999.08
2019-03-24T02:07:32.064Z,999.04
2019-03-24T02:08:31.984Z,999.00
2019-03-24T02:09:31.901Z,999.01
2019-03-24T02:10:31.818Z,998.99
2019-03-24T02:11:31.740Z,999.00
2019-03-24T02:12:31.659Z,998.97
2019-03-24T02:13:31.576Z,999.01
2019-03-24T02:14:31.493Z,998.97
2019-03-24T02:15:31.410Z,998.96
2019-03-24T02:16:31.328Z,998.96
2019-03-24T02:17:31.246Z,998.98
2019-03-24T02:18:31.167Z,998.93
2019-03-24T02:19:31.083Z,998.94
2019-03-24T02:20:31.001Z,998.94
2019-03-24T02:21:30.919Z,998.96
2019-03-24T02:22:30.837Z,998.92
2019-03-24T02:23:30.755Z,998.96
2019-03-24T02:24:30.674Z,998.95
2019-03-24T02:25:30.592Z,998.97
2019-03-24T02:26:30.511Z,998.98
2019-03-24T02:27:30.478Z,998.97
2019-03-24T02:28:30.346Z,998.98
2019-03-24T02:29:30.264Z,998.96
2019-03-24T02:30:30.273Z,998.94
2019-03-24T02:31:30.103Z,998.96
2019-03-24T02:32:30.019Z,998.96
2019-03-24T02:33:29.959Z,998.92
2019-03-24T02:34:29.858Z,998.98
2019-03-24T02:35:29.772Z,998.93
2019-03-24T02:36:29.690Z,998.98
2019-03-24T02:37:29.707Z,998.98
2019-03-24T02:38:29.529Z,998.97
2019-03-24T02:39:29.445Z,999.01
2019-03-24T02:40:29.365Z,998.94
2019-03-24T02:41:29.280Z,998.96
2019-03-24T02:42:29.201Z,998.97
2019-03-24T02:43:29.117Z,998.95
2019-03-24T02:44:29.039Z,998.96
2019-03-24T02:45:28.953Z,998.96
2019-03-24T02:46:28.872Z,998.94
2019-03-24T02:47:28.793Z,998.97
2019-03-24T02:48:28.709Z,998.95
2019-03-24T02:49:28.625Z,998.93
2019-03-24T02:50:28.570Z,998.96
2019-03-24T02:51:28.466Z,998.95
2019-03-24T02:52:28.407Z,998.92
2019-03-24T02:53:28.297Z,998.90
2019-03-24T02:54:28.417Z,998.92
2019-03-24T02:56:28.076Z,998.86
2019-03-24T02:57:27.970Z,998.90
2019-03-24T02:59:27.808Z,998.92
2019-03-24T03:00:27.744Z,998.87
2019-03-24T03:01:27.863Z,998.88
2019-03-24T03:02:27.786Z,998.85
2019-03-24T03:03:27.475Z,998.80
2019-03-24T03:04:27.597Z,998.85
2019-03-24T03:05:27.316Z,998.83
2019-03-24T03:06:27.267Z,998.81
2019-03-24T03:07:27.177Z,998.79
2019-03-24T03:08:27.101Z,998.80
2019-03-24T03:11:27.052Z,998.80
2019-03-24T03:12:26.762Z,998.77
2019-03-24T03:13:27.190Z,998.79
2019-03-24T03:14:26.603Z,998.76
2019-03-24T03:15:26.718Z,998.76
2019-03-24T03:16:37.913Z,998.77
2019-03-24T03:17:26.356Z,998.76
2019-03-24T03:18:26.273Z,998.81
2019-03-24T03:19:26.497Z,998.76
2019-03-24T03:20:26.819Z,998.81
2019-03-24T03:21:26.053Z,998.78
2019-03-24T03:22:26.149Z,998.82
2019-03-24T03:23:25.866Z,998.79
2019-03-24T03:24:25.790Z,998.82
2019-03-24T03:25:25.905Z,998.84
2019-03-24T03:26:25.616Z,998.83
2019-03-24T03:27:25.532Z,998.83
2019-03-24T03:28:25.450Z,998.82
2019-03-24T03:29:25.450Z,998.80
2019-03-24T03:30:25.285Z,998.78
2019-03-24T03:31:25.510Z,998.79
2019-03-24T03:32:25.435Z,998.76
2019-03-24T03:33:25.041Z,998.75
2019-03-24T03:35:24.893Z,998.79
2019-03-24T03:36:24.817Z,998.78
2019-03-24T03:37:24.705Z,998.78
2019-03-24T03:38:24.635Z,998.76
2019-03-24T03:39:24.528Z,998.75
2019-03-24T03:40:24.442Z,998.76
2019-03-24T03:41:24.380Z,998.74
2019-03-24T03:42:24.279Z,998.76
2019-03-24T03:43:24.189Z,998.73
2019-03-24T03:44:24.440Z,998.77
2019-03-24T03:45:24.027Z,998.73
2019-03-24T03:46:23.949Z,998.77
2019-03-24T03:47:23.889Z,998.75
2019-03-24T03:48:23.780Z,998.78
2019-03-24T03:49:23.697Z,998.77
2019-03-24T03:50:23.617Z,998.75
2019-03-24T03:51:23.531Z,998.74
2019-03-24T03:52:23.452Z,998.72
2019-03-24T03:53:23.368Z,998.72
2019-03-24T03:54:23.290Z,998.69
2019-03-24T03:55:23.201Z,998.71
2019-03-24T03:56:23.118Z,998.68
2019-03-24T03:57:23.039Z,998.68
2019-03-24T03:58:23.158Z,998.67
2019-03-24T03:59:22.876Z,998.68
2019-03-24T04:00:22.797Z,998.64
2019-03-24T04:01:22.708Z,998.65
2019-03-24T04:02:22.629Z,998.65
2019-03-24T04:03:22.542Z,998.63
2019-03-24T04:04:22.461Z,998.62
2019-03-24T04:05:22.381Z,998.62
2019-03-24T04:06:22.298Z,998.63
2019-03-24T04:07:22.213Z,998.66
2019-03-24T04:08:22.231Z,998.64
2019-03-24T04:09:22.047Z,998.65
2019-03-24T04:10:21.967Z,998.65
2019-03-24T04:11:21.883Z,998.66
2019-03-24T04:12:21.804Z,998.65
2019-03-24T04:13:21.719Z,998.63
2019-03-24T04:14:21.637Z,998.63
2019-03-24T04:15:21.555Z,998.61
2019-03-24T04:16:21.473Z,998.62
2019-03-24T04:17:21.390Z,998.62
2019-03-24T04:18:21.307Z,998.60
2019-03-24T04:19:21.253Z,998.65
2019-03-24T04:20:21.147Z,998.61
2019-03-24T04:22:20.981Z,998.64
2019-03-24T04:23:20.896Z,998.65
2019-03-24T04:24:20.815Z,998.62
2019-03-24T04:25:21.061Z,998.64
2019-03-24T04:26:20.649Z,998.62
2019-03-24T04:27:20.569Z,998.64
2019-03-24T04:28:20.482Z,998.61
2019-03-24T04:29:20.397Z,998.61
2019-03-24T04:30:20.314Z,998.61
2019-03-24T04:31:20.233Z,998.61
2019-03-24T04:32:20.148Z,998.62
2019-03-24T04:33:20.094Z,998.58
2019-03-24T04:34:19.988Z,998.57
2019-03-24T04:35:19.903Z,998.59
2019-03-24T04:36:19.845Z,998.59
2019-03-24T04:37:19.742Z,998.60
2019-03-24T04:38:19.655Z,998.58
2019-03-24T04:39:19.570Z,998.58
2019-03-24T04:40:19.490Z,998.58
2019-03-24T04:41:19.407Z,998.57
2019-03-24T04:42:19.324Z,998.58
2019-03-24T04:43:19.245Z,998.55
2019-03-24T04:44:19.158Z,998.55
2019-03-24T04:45:19.076Z,998.55
2019-03-24T04:46:18.992Z,998.55
2019-03-24T04:47:18.913Z,998.57
2019-03-24T04:48:18.927Z,998.56
2019-03-24T04:49:19.079Z,998.56
2019-03-24T04:50:18.663Z,998.59
2019-03-24T04:51:18.578Z,998.60
2019-03-24T04:52:18.497Z,998.62
2019-03-24T04:53:20.702Z,998.66
2019-03-24T04:54:18.332Z,998.66
2019-03-24T04:55:18.249Z,998.68
2019-03-24T04:56:18.166Z,998.65
2019-03-24T04:57:18.083Z,998.65
2019-03-24T04:58:18.001Z,998.67
2019-03-24T04:59:17.918Z,998.69
2019-03-24T05:00:17.835Z,998.69
2019-03-24T05:01:17.753Z,998.64
2019-03-24T05:02:17.670Z,998.58
2019-03-24T05:03:17.591Z,998.58
2019-03-24T05:04:17.505Z,998.59
2019-03-24T05:05:17.427Z,998.63
2019-03-24T05:06:17.354Z,998.58
2019-03-24T05:07:17.257Z,998.59
2019-03-24T05:08:17.225Z,998.59
2019-03-24T05:09:17.092Z,998.57
2019-03-24T05:10:17.008Z,998.60
2019-03-24T05:11:16.926Z,998.55
2019-03-24T05:12:16.844Z,998.56
2019-03-24T05:13:16.761Z,998.56
2019-03-24T05:14:16.679Z,998.55
2019-03-24T05:15:16.595Z,998.57
2019-03-24T05:16:16.515Z,998.55
2019-03-24T05:17:26.526Z,998.55
2019-03-24T05:18:16.351Z,998.57
2019-03-24T05:19:16.267Z,998.54
2019-03-24T05:20:16.187Z,998.55
2019-03-24T05:21:16.100Z,998.58
2019-03-24T05:22:16.019Z,998.56
2019-03-24T05:23:15.935Z,998.58
2019-03-24T05:24:15.853Z,998.65
2019-03-24T05:25:15.770Z,998.61
2019-03-24T05:26:15.687Z,998.64
2019-03-24T05:27:15.605Z,998.62
2019-03-24T05:28:15.523Z,998.66
2019-03-24T05:29:15.440Z,998.63
2019-03-24T05:30:15.357Z,998.62
2019-03-24T05:31:15.274Z,998.63
2019-03-24T05:32:15.192Z,998.67
2019-03-24T05:33:15.114Z,998.65
2019-03-24T05:34:15.128Z,998.63
2019-03-24T05:35:14.945Z,998.63
2019-03-24T05:36:14.862Z,998.65
2019-03-24T05:37:14.783Z,998.62
2019-03-24T05:38:14.696Z,998.59
2019-03-24T05:39:14.718Z,998.63
2019-03-24T05:40:14.532Z,998.64
2019-03-24T05:41:14.453Z,998.62
2019-03-24T05:42:14.370Z,998.59
2019-03-24T05:43:14.284Z,998.59
2019-03-24T05:44:14.201Z,998.55
2019-03-24T05:45:14.120Z,998.62
2019-03-24T05:46:14.038Z,998.63
2019-03-24T05:47:13.955Z,998.62
2019-03-24T05:48:13.873Z,998.61
2019-03-24T05:49:13.790Z,998.61
2019-03-24T05:50:13.706Z,998.67
2019-03-24T05:51:13.628Z,998.63
2019-03-24T05:52:13.545Z,998.66
2019-03-24T05:53:13.460Z,998.62
2019-03-24T05:54:13.378Z,998.63
2019-03-24T05:55:13.293Z,998.63
2019-03-24T05:56:13.212Z,998.63
2019-03-24T05:57:13.130Z,998.61
2019-03-24T05:58:13.047Z,998.60
2019-03-24T05:59:12.963Z,998.59
2019-03-24T06:00:12.883Z,998.65
2019-03-24T06:01:12.799Z,998.59
2019-03-24T06:02:12.720Z,998.58
2019-03-24T06:03:12.633Z,998.61
2019-03-24T06:04:12.551Z,998.57
2019-03-24T06:05:12.470Z,998.58
2019-03-24T06:06:12.387Z,998.61
2019-03-24T06:07:12.303Z,998.60
2019-03-24T06:08:12.222Z,998.61
2019-03-24T06:09:12.139Z,998.58
2019-03-24T06:10:12.058Z,998.60
2019-03-24T06:11:11.975Z,998.63
2019-03-24T06:12:11.891Z,998.66
2019-03-24T06:13:11.811Z,998.63
2019-03-24T06:14:11.729Z,998.62
2019-03-24T06:15:11.645Z,998.67
2019-03-24T06:16:11.565Z,998.66
2019-03-24T06:17:11.480Z,998.69
2019-03-24T06:18:11.398Z,998.69
2019-03-24T06:19:11.315Z,998.69
2019-03-24T06:20:11.233Z,998.74
2019-03-24T06:21:11.152Z,998.71
2019-03-24T06:22:11.069Z,998.75
2019-03-24T06:23:10.986Z,998.72
2019-03-24T06:24:10.905Z,998.70
2019-03-24T06:25:10.823Z,998.75
2019-03-24T06:26:10.752Z,998.76
2019-03-24T06:27:10.658Z,998.79
2019-03-24T06:28:10.576Z,998.81
2019-03-24T06:29:10.493Z,998.82
2019-03-24T06:30:10.513Z,998.85
2019-03-24T06:31:10.330Z,998.89
2019-03-24T06:32:10.247Z,998.93
2019-03-24T06:33:10.166Z,998.91
2019-03-24T06:34:10.085Z,998.92
2019-03-24T06:35:10.004Z,998.88
2019-03-24T06:36:09.921Z,998.89
2019-03-24T06:37:09.839Z,998.89
2019-03-24T06:38:09.759Z,998.87
2019-03-24T06:39:09.676Z,998.87
2019-03-24T06:40:09.595Z,998.89
2019-03-24T06:41:09.513Z,998.88
2019-03-24T06:42:09.432Z,998.82
2019-03-24T06:43:09.353Z,998.81
2019-03-24T06:44:09.269Z,998.81
2019-03-24T06:45:09.187Z,998.85
2019-03-24T06:46:09.106Z,998.84
2019-03-24T06:47:09.024Z,998.85
2019-03-24T06:48:08.942Z,998.84
2019-03-24T06:49:08.861Z,998.82
2019-03-24T06:50:08.789Z,998.81
2019-03-24T06:51:08.700Z,998.80
2019-03-24T06:52:08.618Z,998.78
2019-03-24T06:53:08.537Z,998.83
2019-03-24T06:54:08.456Z,998.79
2019-03-24T06:55:08.376Z,998.76
2019-03-24T06:56:08.292Z,998.78
2019-03-24T06:57:08.213Z,998.76
2019-03-24T06:58:08.132Z,998.78
2019-03-24T06:59:08.052Z,998.79
2019-03-24T07:00:07.970Z,998.76
2019-03-24T07:01:07.888Z,998.79
2019-03-24T07:02:07.807Z,998.80
2019-03-24T07:03:07.731Z,998.83
2019-03-24T07:04:07.647Z,998.82
2019-03-24T07:05:07.567Z,998.82
2019-03-24T07:06:07.488Z,998.82
2019-03-24T07:07:07.406Z,998.83
2019-03-24T07:08:07.329Z,998.83
2019-03-24T07:09:07.245Z,998.87
2019-03-24T07:10:07.169Z,998.83
2019-03-24T07:11:12.357Z,998.82
2019-03-24T07:12:07.006Z,998.83
2019-03-24T07:13:07.023Z,998.84
2019-03-24T07:14:06.842Z,998.86
2019-03-24T07:15:06.761Z,998.87
2019-03-24T07:16:06.681Z,998.88
2019-03-24T07:17:06.600Z,998.88
2019-03-24T07:18:08.701Z,998.86
2019-03-24T07:19:06.438Z,998.85
2019-03-24T07:20:06.360Z,998.89
2019-03-24T07:21:06.279Z,998.90
2019-03-24T07:22:07.311Z,998.91
2019-03-24T07:23:06.118Z,998.87
2019-03-24T07:24:06.038Z,998.91
2019-03-24T07:25:05.964Z,998.87
2019-03-24T07:26:05.879Z,998.91
2019-03-24T07:27:05.797Z,998.95
2019-03-24T07:28:05.717Z,998.89
2019-03-24T07:29:05.638Z,998.88
2019-03-24T07:30:05.558Z,998.85
2019-03-24T07:31:05.481Z,998.83
2019-03-24T07:32:05.397Z,998.83
2019-03-24T07:33:05.317Z,998.85
2019-03-24T07:34:05.238Z,998.88
2019-03-24T07:35:05.158Z,998.85
2019-03-24T07:36:05.076Z,998.89
2019-03-24T07:37:04.997Z,998.88
2019-03-24T07:38:04.921Z,998.87
2019-03-24T07:39:05.039Z,998.86
2019-03-24T07:40:04.758Z,998.84
2019-03-24T07:41:04.678Z,998.81
2019-03-24T07:42:05.602Z,998.82
2019-03-24T07:43:04.518Z,998.80
2019-03-24T07:44:04.438Z,998.81
2019-03-24T07:45:04.359Z,998.87
2019-03-24T07:46:04.279Z,998.82
2019-03-24T07:47:04.198Z,998.85
2019-03-24T07:48:04.118Z,998.82
2019-03-24T07:49:04.045Z,998.82
2019-03-24T07:50:07.187Z,998.80
2019-03-24T07:51:03.878Z,998.78
2019-03-24T07:52:03.798Z,998.81
2019-03-24T07:53:03.718Z,998.80
2019-03-24T07:54:03.639Z,998.82
2019-03-24T07:55:03.558Z,998.87
2019-03-24T07:56:03.477Z,998.86
2019-03-24T07:57:03.402Z,998.85
2019-03-24T07:58:03.323Z,998.83
2019-03-24T07:59:03.290Z,998.77
2019-03-24T08:00:03.162Z,998.78
2019-03-24T08:01:03.079Z,998.81
2019-03-24T08:02:03.001Z,998.79
2019-03-24T08:03:02.919Z,998.82
2019-03-24T08:04:02.839Z,998.81
2019-03-24T08:05:02.760Z,998.82
2019-03-24T08:06:02.680Z,998.80
2019-03-24T08:07:02.599Z,998.75
2019-03-24T08:08:02.520Z,998.77
2019-03-24T08:09:02.441Z,998.81
2019-03-24T08:10:02.362Z,998.77
2019-03-24T08:11:02.280Z,998.77
2019-03-24T08:12:02.204Z,998.77
2019-03-24T08:13:02.123Z,998.75
2019-03-24T08:14:02.043Z,998.76
2019-03-24T08:15:01.968Z,998.71
2019-03-24T08:16:01.886Z,998.71
2019-03-24T08:17:01.804Z,998.71
2019-03-24T08:18:01.726Z,998.73
2019-03-24T08:19:01.646Z,998.69
2019-03-24T08:20:01.567Z,998.73
2019-03-24T08:21:01.494Z,998.71
2019-03-24T08:22:01.413Z,998.72
2019-03-24T08:23:01.334Z,998.69
2019-03-24T08:24:01.262Z,998.71
2019-03-24T08:25:01.173Z,998.72
2019-03-24T08:26:01.094Z,998.70
2019-03-24T08:27:01.023Z,998.69
2019-03-24T08:28:00.937Z,998.67
2019-03-24T08:29:00.865Z,998.70
2019-03-24T08:30:00.780Z,998.69
2019-03-24T08:31:00.801Z,998.69
2019-03-24T08:32:00.623Z,998.69
2019-03-24T08:33:00.543Z,998.66
2019-03-24T08:34:00.465Z,998.63
2019-03-24T08:35:00.388Z,998.58
2019-03-24T08:36:00.308Z,998.54
2019-03-24T08:37:00.229Z,998.51
2019-03-24T08:38:00.153Z,998.48
2019-03-24T08:39:00.077Z,998.50
2019-03-24T08:39:59.995Z,998.43
2019-03-24T08:40:59.918Z,998.41
2019-03-24T08:41:59.840Z,998.39
2019-03-24T08:42:59.761Z,998.39
2019-03-24T08:43:59.684Z,998.34
2019-03-24T08:44:59.605Z,998.38
2019-03-24T08:45:59.528Z,998.38
2019-03-24T08:46:59.449Z,998.35
2019-03-24T08:47:59.373Z,998.36
2019-03-24T08:48:59.292Z,998.36
2019-03-24T08:49:59.216Z,998.32
2019-03-24T08:50:59.137Z,998.29
2019-03-24T08:51:59.060Z,998.32
2019-03-24T08:52:58.982Z,998.28
2019-03-24T08:53:58.905Z,998.24
2019-03-24T08:54:59.952Z,998.23
2019-03-24T08:55:58.748Z,998.19
2019-03-24T08:56:58.673Z,998.18
2019-03-24T08:57:58.593Z,998.13
2019-03-24T08:58:58.515Z,998.17
2019-03-24T08:59:58.438Z,998.16
2019-03-24T09:00:58.361Z,998.14
2019-03-24T09:01:58.284Z,998.14
2019-03-24T09:02:58.205Z,998.10
2019-03-24T09:03:58.127Z,998.11
2019-03-24T09:04:58.051Z,998.11
2019-03-24T09:05:57.974Z,998.03
2019-03-24T09:06:57.896Z,998.03
2019-03-24T09:07:57.819Z,998.04
2019-03-24T09:08:57.742Z,998.01
2019-03-24T09:09:57.667Z,998.04
2019-03-24T09:10:57.587Z,998.03
2019-03-24T09:11:57.511Z,998.04
2019-03-24T09:12:57.433Z,998.09
2019-03-24T09:13:57.357Z,998.06
2019-03-24T09:14:57.280Z,998.03
2019-03-24T09:15:57.202Z,998.02
2019-03-24T09:16:57.127Z,998.01
2019-03-24T09:17:57.050Z,998.01
2019-03-24T09:18:56.973Z,998.00
2019-03-24T09:19:56.900Z,997.99
2019-03-24T09:20:56.821Z,997.97
2019-03-24T09:21:56.742Z,997.98
2019-03-24T09:22:56.665Z,997.94
2019-03-24T09:23:56.589Z,997.93
2019-03-24T09:24:56.517Z,997.92
2019-03-24T09:25:56.437Z,997.94
2019-03-24T09:26:56.362Z,997.92
2019-03-24T09:27:56.285Z,997.93
2019-03-24T09:28:56.207Z,997.95
2019-03-24T09:29:56.130Z,997.88
2019-03-24T09:30:56.053Z,997.88
2019-03-24T09:31:55.976Z,997.87
2019-03-24T09:32:55.901Z,997.83
2019-03-24T09:33:55.823Z,997.87
2019-03-24T09:34:55.751Z,997.82
2019-03-24T09:35:55.671Z,997.84
2019-03-24T09:36:55.596Z,997.82
2019-03-24T09:37:55.517Z,997.78
2019-03-24T09:38:55.444Z,997.81
2019-03-24T09:39:55.366Z,997.79
2019-03-24T09:40:55.289Z,997.79
2019-03-24T09:41:55.212Z,997.78
2019-03-24T09:42:55.136Z,997.77
2019-03-24T09:43:55.059Z,997.79
2019-03-24T09:44:54.984Z,997.80
2019-03-24T09:45:56.200Z,997.81
2019-03-24T09:46:54.831Z,997.81
2019-03-24T09:47:54.755Z,997.81
2019-03-24T09:49:02.626Z,997.87
2019-03-24T09:49:54.603Z,997.89
2019-03-24T09:50:54.526Z,997.84
2019-03-24T09:51:54.451Z,997.84
2019-03-24T09:52:54.375Z,997.78
2019-03-24T09:53:54.298Z,997.73
2019-03-24T09:54:54.223Z,997.72
2019-03-24T09:55:54.144Z,997.81
2019-03-24T09:56:54.070Z,997.78
2019-03-24T09:57:53.992Z,997.79
2019-03-24T09:58:53.917Z,997.75
2019-03-24T09:59:53.840Z,997.79
2019-03-24T10:00:53.768Z,997.76
2019-03-24T10:01:53.691Z,997.78
2019-03-24T10:02:53.618Z,997.78
2019-03-24T10:03:53.538Z,997.71
2019-03-24T10:04:54.934Z,997.71
2019-03-24T10:05:53.387Z,997.75
2019-03-24T10:06:53.311Z,997.72
2019-03-24T10:07:53.239Z,997.75
2019-03-24T10:08:53.161Z,997.71
2019-03-24T10:09:53.085Z,997.75
2019-03-24T10:10:53.008Z,997.78
2019-03-24T10:11:52.933Z,997.75
2019-03-24T10:12:52.857Z,997.78
2019-03-24T10:13:52.783Z,997.76
2019-03-24T10:14:52.706Z,997.77
2019-03-24T10:15:52.682Z,997.78
2019-03-24T10:16:52.557Z,997.77
2019-03-24T10:17:52.482Z,997.81
2019-03-24T10:18:52.405Z,997.83
2019-03-24T10:19:52.330Z,997.73
2019-03-24T10:20:52.256Z,997.74
2019-03-24T10:21:52.180Z,997.76
2019-03-24T10:22:52.108Z,997.71
2019-03-24T10:23:52.030Z,997.75
2019-03-24T10:24:51.956Z,997.72
2019-03-24T10:25:51.881Z,997.71
2019-03-24T10:26:51.810Z,997.75
2019-03-24T10:27:51.733Z,997.76
2019-03-24T10:28:51.656Z,997.76
2019-03-24T10:29:51.583Z,997.79
2019-03-24T10:30:51.508Z,997.77
2019-03-24T10:31:51.434Z,997.76
2019-03-24T10:32:51.361Z,997.72
2019-03-24T10:33:51.287Z,997.76
2019-03-24T10:34:51.212Z,997.77
2019-03-24T10:35:51.143Z,997.75
2019-03-24T10:36:51.065Z,997.72
2019-03-24T10:37:50.991Z,997.75
2019-03-24T10:38:50.920Z,997.73
2019-03-24T10:39:50.844Z,997.68
2019-03-24T10:40:50.771Z,997.67
2019-03-24T10:41:50.697Z,997.65
2019-03-24T10:42:50.680Z,997.67
2019-03-24T10:43:50.548Z,997.68
2019-03-24T10:44:50.476Z,997.66
2019-03-24T10:45:50.402Z,997.72
2019-03-24T10:46:50.327Z,997.71
2019-03-24T10:47:50.258Z,997.69
2019-03-24T10:48:50.183Z,997.68
2019-03-24T10:49:50.109Z,997.66
2019-03-24T10:50:50.035Z,997.68
2019-03-24T10:51:49.962Z,997.66
2019-03-24T10:52:49.897Z,997.71
2019-03-24T10:53:49.816Z,997.68
2019-03-24T10:54:49.742Z,997.65
2019-03-24T10:55:49.670Z,997.63
2019-03-24T10:56:49.596Z,997.61
2019-03-24T10:57:49.523Z,997.59
2019-03-24T10:58:49.450Z,997.59
2019-03-24T10:59:49.377Z,997.57
2019-03-24T11:00:49.304Z,997.58
2019-03-24T11:01:49.233Z,997.53
2019-03-24T11:02:49.308Z,997.47
2019-03-24T11:03:49.085Z,997.48
2019-03-24T11:04:49.012Z,997.43
2019-03-24T11:05:48.942Z,997.38
2019-03-24T11:06:48.865Z,997.46
2019-03-24T11:07:48.792Z,997.46
2019-03-24T11:08:48.720Z,997.42
2019-03-24T11:09:48.679Z,997.43
2019-03-24T11:10:48.575Z,997.45
2019-03-24T11:11:48.503Z,997.46
2019-03-24T11:12:48.431Z,997.48
2019-03-24T11:13:48.361Z,997.45
2019-03-24T11:14:48.286Z,997.41
2019-03-24T11:15:48.214Z,997.38
2019-03-24T11:16:48.144Z,997.40
2019-03-24T11:17:48.070Z,997.44
2019-03-24T11:18:47.999Z,997.46
2019-03-24T11:19:47.926Z,997.47
2019-03-24T11:20:47.856Z,997.48
2019-03-24T11:21:47.784Z,997.50
2019-03-24T11:22:47.711Z,997.40
2019-03-24T11:23:47.640Z,997.44
2019-03-24T11:24:47.568Z,997.41
2019-03-24T11:25:47.498Z,997.48
2019-03-24T11:26:47.426Z,997.46
2019-03-24T11:27:47.355Z,997.46
2019-03-24T11:28:47.284Z,997.32
2019-03-24T11:29:47.214Z,997.31
2019-03-24T11:30:47.143Z,997.27
2019-03-24T11:31:47.073Z,997.30
2019-03-24T11:32:47.003Z,997.33
2019-03-24T11:33:46.933Z,997.33
2019-03-24T11:34:46.862Z,997.43
2019-03-24T11:35:46.792Z,997.34
2019-03-24T11:36:46.721Z,997.33
2019-03-24T11:37:46.654Z,997.47
2019-03-24T11:38:46.582Z,997.50
2019-03-24T11:39:46.508Z,997.53
2019-03-24T11:40:46.442Z,997.58
2019-03-24T11:41:46.368Z,997.52
2019-03-24T11:42:46.299Z,997.53
2019-03-24T11:43:46.229Z,997.51
2019-03-24T11:44:46.161Z,997.45
2019-03-24T11:45:46.090Z,997.37
2019-03-24T11:46:46.022Z,997.40
2019-03-24T11:47:45.951Z,997.46
2019-03-24T11:48:45.882Z,997.34
2019-03-24T11:49:47.245Z,997.28
2019-03-24T11:50:45.742Z,997.31
2019-03-24T11:51:45.671Z,997.32
2019-03-24T11:52:45.603Z,997.26
2019-03-24T11:53:45.534Z,997.24
2019-03-24T11:54:45.463Z,997.20
2019-03-24T11:55:45.395Z,997.19
2019-03-24T11:56:45.323Z,997.20
2019-03-24T11:57:45.256Z,997.22
2019-03-24T11:58:45.200Z,997.15
2019-03-24T11:59:45.112Z,997.17
2019-03-24T12:00:45.045Z,997.27
2019-03-24T12:01:44.973Z,997.18
2019-03-24T12:02:44.902Z,997.13
2019-03-24T12:03:44.831Z,997.16
2019-03-24T12:04:44.761Z,997.14
2019-03-24T12:05:44.691Z,997.24
2019-03-24T12:06:44.619Z,997.14
2019-03-24T12:07:44.550Z,997.10
2019-03-24T12:08:44.478Z,997.16
2019-03-24T12:09:44.408Z,997.11
2019-03-24T12:10:44.338Z,997.14
2019-03-24T12:11:44.267Z,997.10
2019-03-24T12:12:44.196Z,997.12
2019-03-24T12:13:44.126Z,997.08
2019-03-24T12:14:44.056Z,997.18
2019-03-24T12:15:43.986Z,997.16
2019-03-24T12:16:43.916Z,997.23
2019-03-24T12:17:43.847Z,997.09
2019-03-24T12:18:43.779Z,997.04
2019-03-24T12:19:43.708Z,997.21
2019-03-24T12:20:43.637Z,997.11
2019-03-24T12:21:43.568Z,997.08
2019-03-24T12:22:43.498Z,997.03
2019-03-24T12:23:43.428Z,997.14
2019-03-24T12:24:43.359Z,997.07
2019-03-24T12:25:43.289Z,997.13
2019-03-24T12:26:43.219Z,997.10
2019-03-24T12:27:43.154Z,997.07
2019-03-24T12:28:43.080Z,997.12
2019-03-24T12:29:43.011Z,997.11
2019-03-24T12:30:42.941Z,997.04
2019-03-24T12:31:42.875Z,997.07
2019-03-24T12:32:42.804Z,997.07
2019-03-24T12:33:42.784Z,997.04
2019-03-24T12:34:42.665Z,996.99
2019-03-24T12:35:42.593Z,996.94
2019-03-24T12:36:42.524Z,996.92
2019-03-24T12:37:42.460Z,996.97
2019-03-24T12:38:42.384Z,996.95
2019-03-24T12:39:42.317Z,996.94